createdAt,value
2017-11-09T00:00:32.802Z,6.50
2017-11-09T00:03:01.074Z,6.50
2017-11-09T00:05:35.159Z,6.50
2017-11-09T00:08:02.740Z,6.50
2017-11-09T00:10:31.091Z,6.50
2017-11-09T00:12:59.149Z,6.50
2017-11-09T00:15:26.768Z,6.50
2017-11-09T00:17:54.279Z,6.50
2017-11-09T00:20:21.783Z,6.60
2017-11-09T00:22:49.293Z,6.60
2017-11-09T00:25:16.798Z,6.50
2017-11-09T00:27:44.291Z,6.60
2017-11-09T00:30:11.912Z,6.60
2017-11-09T00:32:40.290Z,6.60
2017-11-09T00:35:08.574Z,6.60
2017-11-09T00:37:36.061Z,6.60
2017-11-09T00:40:03.555Z,6.60
2017-11-09T00:42:31.080Z,6.60
2017-11-09T00:44:58.573Z,6.60
2017-11-09T00:47:26.085Z,6.60
2017-11-09T00:49:53.586Z,6.60
2017-11-09T00:52:21.090Z,6.50
2017-11-09T00:54:48.597Z,6.50
2017-11-09T00:57:16.098Z,6.50
2017-11-09T00:59:43.588Z,6.60
2017-11-09T01:02:11.115Z,6.60
2017-11-09T01:04:38.681Z,6.50
2017-11-09T01:07:06.181Z,6.50
2017-11-09T01:09:33.664Z,6.50
2017-11-09T01:12:01.943Z,6.50
2017-11-09T01:14:30.242Z,6.50
2017-11-09T01:16:57.788Z,6.50
2017-11-09T01:19:26.077Z,6.50
2017-11-09T01:21:53.631Z,6.50
2017-11-09T01:24:21.159Z,6.50
2017-11-09T01:26:48.735Z,6.50
2017-11-09T01:29:17.005Z,6.50
2017-11-09T01:31:45.305Z,6.50
2017-11-09T01:34:12.805Z,6.50
2017-11-09T01:36:40.298Z,6.50
2017-11-09T01:39:08.591Z,6.50
2017-11-09T01:41:36.876Z,6.50
2017-11-09T01:44:04.437Z,6.50
2017-11-09T01:46:31.951Z,6.50
2017-11-09T01:48:59.481Z,6.50
2017-11-09T01:51:26.984Z,6.50
2017-11-09T01:53:55.266Z,6.50
2017-11-09T01:56:22.774Z,6.50
2017-11-09T01:58:50.394Z,6.50
2017-11-09T02:01:19.458Z,6.50
2017-11-09T02:03:47.058Z,6.50
2017-11-09T02:06:14.560Z,6.50
2017-11-09T02:08:42.050Z,6.50
2017-11-09T02:11:09.548Z,6.60
2017-11-09T02:13:37.093Z,6.60
2017-11-09T02:16:04.598Z,6.50
2017-11-09T02:18:32.104Z,6.50
2017-11-09T02:21:00.369Z,6.50
2017-11-09T02:23:28.640Z,6.50
2017-11-09T02:25:56.921Z,6.50
2017-11-09T02:28:24.491Z,6.50
2017-11-09T02:30:51.983Z,6.50
2017-11-09T02:33:19.506Z,6.50
2017-11-09T02:35:47.113Z,6.50
2017-11-09T02:38:14.639Z,6.50
2017-11-09T02:40:42.169Z,6.50
2017-11-09T02:43:10.462Z,6.50
2017-11-09T02:45:38.725Z,6.50
2017-11-09T02:48:07.012Z,6.50
2017-11-09T02:50:34.526Z,6.50
2017-11-09T02:53:02.035Z,6.40
2017-11-09T02:55:29.554Z,6.40
2017-11-09T02:57:57.050Z,6.50
2017-11-09T03:00:24.544Z,6.50
2017-11-09T03:02:52.065Z,6.50
2017-11-09T03:05:19.817Z,6.40
2017-11-09T03:07:47.387Z,6.50
2017-11-09T03:10:15.201Z,6.50
2017-11-09T03:12:42.805Z,6.50
2017-11-09T03:15:11.093Z,6.40
2017-11-09T03:17:38.667Z,6.40
2017-11-09T03:20:06.209Z,6.40
2017-11-09T03:22:34.463Z,6.40
2017-11-09T03:25:02.785Z,6.40
2017-11-09T03:27:30.333Z,6.40
2017-11-09T03:29:57.893Z,6.40
2017-11-09T03:32:25.401Z,6.40
2017-11-09T03:34:52.909Z,6.40
2017-11-09T03:37:20.432Z,6.40
2017-11-09T03:39:48.751Z,6.40
2017-11-09T03:42:16.269Z,6.40
2017-11-09T03:44:43.850Z,6.40
2017-11-09T03:47:11.434Z,6.40
2017-11-09T03:49:38.937Z,6.40
2017-11-09T03:52:07.318Z,6.50
2017-11-09T03:54:34.902Z,6.40
2017-11-09T03:57:03.181Z,6.40
2017-11-09T03:59:30.753Z,6.40
2017-11-09T04:01:58.262Z,6.40
2017-11-09T04:04:25.760Z,6.40
2017-11-09T04:06:54.037Z,6.40
2017-11-09T04:09:21.532Z,6.40
2017-11-09T04:11:49.027Z,6.40
2017-11-09T04:14:16.554Z,6.40
2017-11-09T04:16:44.075Z,6.40
2017-11-09T04:19:11.591Z,6.40
2017-11-09T04:21:39.095Z,6.40
2017-11-09T04:24:06.586Z,6.40
2017-11-09T04:26:34.109Z,6.40
2017-11-09T04:29:01.622Z,6.40
2017-11-09T04:31:29.218Z,6.40
2017-11-09T04:33:57.474Z,6.40
2017-11-09T04:36:24.974Z,6.30
2017-11-09T04:38:52.511Z,6.40
2017-11-09T04:41:20.036Z,6.30
2017-11-09T04:43:47.623Z,6.30
2017-11-09T04:46:15.125Z,6.30
2017-11-09T04:48:42.614Z,6.30
2017-11-09T04:51:10.210Z,6.30
2017-11-09T04:53:37.697Z,6.30
2017-11-09T04:56:05.204Z,6.40
2017-11-09T04:58:33.514Z,6.30
2017-11-09T05:01:01.083Z,6.30
2017-11-09T05:03:28.613Z,6.30
2017-11-09T05:05:56.681Z,6.30
2017-11-09T05:08:24.960Z,6.30
2017-11-09T05:10:53.275Z,6.40
2017-11-09T05:13:20.766Z,6.30
2017-11-09T05:15:48.368Z,6.40
2017-11-09T05:18:15.917Z,6.40
2017-11-09T05:20:44.199Z,6.30
2017-11-09T05:23:11.718Z,6.30
2017-11-09T05:25:39.223Z,6.30
2017-11-09T05:28:06.732Z,6.30
2017-11-09T05:30:34.258Z,6.30
2017-11-09T05:33:01.783Z,6.30
2017-11-09T05:35:29.295Z,6.30
2017-11-09T05:37:56.798Z,6.30
2017-11-09T05:40:25.069Z,6.30
2017-11-09T05:42:53.343Z,6.30
2017-11-09T05:45:21.618Z,6.30
2017-11-09T05:47:49.878Z,6.30
2017-11-09T05:50:17.474Z,6.30
2017-11-09T05:52:44.986Z,6.30
2017-11-09T05:55:12.505Z,6.30
2017-11-09T05:57:40.045Z,6.30
2017-11-09T06:00:07.562Z,6.30
2017-11-09T06:02:35.065Z,6.40
2017-11-09T06:05:02.718Z,6.30
2017-11-09T06:07:30.234Z,6.30
2017-11-09T06:09:57.785Z,6.30
2017-11-09T06:12:25.285Z,6.30
2017-11-09T06:14:53.548Z,6.30
2017-11-09T06:17:21.054Z,6.30
2017-11-09T06:19:48.619Z,6.40
2017-11-09T06:22:16.152Z,6.40
2017-11-09T06:24:43.791Z,6.30
2017-11-09T06:27:12.059Z,6.40
2017-11-09T06:29:39.556Z,6.40
2017-11-09T06:32:07.163Z,6.40
2017-11-09T06:34:34.669Z,6.40
2017-11-09T06:37:02.171Z,6.40
2017-11-09T06:39:30.649Z,6.50
2017-11-09T06:41:58.155Z,6.50
2017-11-09T06:44:26.426Z,6.50
2017-11-09T06:46:54.805Z,6.60
2017-11-09T06:49:23.079Z,6.60
2017-11-09T06:51:51.353Z,6.60
2017-11-09T06:54:19.752Z,6.60
2017-11-09T06:56:47.247Z,6.60
2017-11-09T06:59:14.877Z,6.50
2017-11-09T07:01:42.426Z,6.60
2017-11-09T07:04:09.965Z,6.50
2017-11-09T07:06:38.240Z,6.60
2017-11-09T07:09:06.519Z,6.60
2017-11-09T07:11:34.809Z,6.60
2017-11-09T07:14:02.328Z,6.60
2017-11-09T07:16:29.835Z,6.60
2017-11-09T07:18:57.418Z,6.60
2017-11-09T07:21:24.944Z,6.60
2017-11-09T07:23:52.452Z,6.60
2017-11-09T07:26:20.084Z,6.60
2017-11-09T07:28:47.606Z,6.70
2017-11-09T07:31:15.901Z,6.70
2017-11-09T07:33:44.185Z,6.70
2017-11-09T07:36:11.737Z,6.70
2017-11-09T07:38:40.005Z,6.60
2017-11-09T07:41:08.413Z,6.60
2017-11-09T07:43:35.926Z,6.70
2017-11-09T07:46:04.194Z,6.70
2017-11-09T07:48:31.718Z,6.60
2017-11-09T07:50:59.214Z,6.70
2017-11-09T07:53:26.701Z,6.70
2017-11-09T07:55:55.091Z,6.70
2017-11-09T07:58:22.618Z,6.70
2017-11-09T08:00:50.927Z,6.70
2017-11-09T08:03:18.496Z,6.70
2017-11-09T08:05:46.140Z,6.80
2017-11-09T08:08:13.654Z,6.80
2017-11-09T08:10:41.282Z,6.80
2017-11-09T08:13:08.784Z,6.80
2017-11-09T08:15:37.782Z,6.80
2017-11-09T08:18:05.264Z,6.80
2017-11-09T08:20:33.548Z,6.90
2017-11-09T08:23:01.099Z,6.80
2017-11-09T08:25:34.474Z,6.90
2017-11-09T08:28:05.513Z,6.90
2017-11-09T08:30:33.348Z,6.90
2017-11-09T08:33:04.765Z,6.90
2017-11-09T08:35:32.260Z,6.90
2017-11-09T08:37:59.800Z,7.00
2017-11-09T08:40:27.310Z,6.90
2017-11-09T08:42:55.583Z,7.00
2017-11-09T08:45:23.171Z,7.00
2017-11-09T08:47:50.689Z,7.00
2017-11-09T08:50:18.188Z,7.00
2017-11-09T08:52:45.732Z,7.00
2017-11-09T08:55:13.238Z,7.00
2017-11-09T08:57:40.762Z,7.20
2017-11-09T09:00:08.285Z,7.20
2017-11-09T09:02:35.813Z,7.30
2017-11-09T09:05:03.310Z,7.30
2017-11-09T09:07:31.579Z,7.20
2017-11-09T09:09:59.881Z,7.20
2017-11-09T09:12:28.170Z,7.10
2017-11-09T09:14:55.685Z,7.10
2017-11-09T09:17:23.239Z,7.10
2017-11-09T09:19:50.764Z,7.10
2017-11-09T09:22:20.872Z,7.10
2017-11-09T09:24:48.398Z,7.00
2017-11-09T09:27:18.585Z,7.10
2017-11-09T09:29:50.561Z,7.10
2017-11-09T09:32:28.017Z,7.00
2017-11-09T09:35:01.193Z,7.00
2017-11-09T09:37:33.073Z,7.10
2017-11-09T09:40:05.371Z,7.10
2017-11-09T09:42:32.873Z,7.10
2017-11-09T09:45:00.361Z,7.10
2017-11-09T09:47:27.876Z,7.10
2017-11-09T09:49:56.140Z,7.20
2017-11-09T09:52:23.721Z,7.20
2017-11-09T09:54:51.229Z,7.20
2017-11-09T09:57:18.737Z,7.30
2017-11-09T09:59:46.251Z,7.30
2017-11-09T10:02:13.753Z,7.30
2017-11-09T10:04:42.023Z,7.40
2017-11-09T10:07:09.540Z,7.40
2017-11-09T10:09:37.041Z,7.40
2017-11-09T10:12:04.568Z,7.50
2017-11-09T10:14:32.162Z,7.50
2017-11-09T10:16:59.753Z,7.50
2017-11-09T10:19:27.277Z,7.60
2017-11-09T10:21:54.777Z,7.70
2017-11-09T10:24:22.288Z,7.60
2017-11-09T10:26:50.559Z,7.60
2017-11-09T10:29:18.059Z,7.50
2017-11-09T10:31:45.610Z,7.60
2017-11-09T10:34:13.096Z,7.50
2017-11-09T10:36:40.753Z,7.50
2017-11-09T10:39:08.301Z,7.60
2017-11-09T10:41:35.809Z,7.60
2017-11-09T10:44:04.089Z,7.60
2017-11-09T10:46:32.354Z,7.60
2017-11-09T10:48:59.880Z,7.60
2017-11-09T10:51:27.414Z,7.70
2017-11-09T10:53:54.916Z,7.70
2017-11-09T10:56:22.430Z,7.60
2017-11-09T10:58:49.953Z,7.60
2017-11-09T11:01:17.534Z,7.60
2017-11-09T11:03:45.110Z,7.50
2017-11-09T11:06:12.618Z,7.60
2017-11-09T11:08:40.134Z,7.60
2017-11-09T11:11:07.651Z,7.70
2017-11-09T11:13:35.973Z,7.80
2017-11-09T11:16:03.471Z,7.70
2017-11-09T11:18:30.979Z,7.80
2017-11-09T11:20:58.520Z,7.90
2017-11-09T11:23:26.810Z,7.90
2017-11-09T11:25:54.365Z,7.90
2017-11-09T11:28:21.869Z,8.00
2017-11-09T11:30:49.467Z,8.10
2017-11-09T11:33:17.754Z,8.10
2017-11-09T11:35:45.279Z,8.10
2017-11-09T11:38:12.863Z,8.10
2017-11-09T11:40:41.148Z,8.10
2017-11-09T11:43:08.704Z,8.10
2017-11-09T11:45:36.985Z,8.00
2017-11-09T11:48:05.262Z,8.00
2017-11-09T11:50:32.820Z,7.90
2017-11-09T11:53:00.306Z,7.90
2017-11-09T11:55:27.942Z,7.90
2017-11-09T11:57:55.445Z,8.00
2017-11-09T12:00:22.959Z,8.00
2017-11-09T12:02:54.520Z,8.00
2017-11-09T12:05:22.115Z,8.10
2017-11-09T12:07:49.677Z,8.20
2017-11-09T12:10:17.413Z,8.10
2017-11-09T12:12:44.932Z,8.20
2017-11-09T12:15:13.209Z,8.00
2017-11-09T12:17:41.505Z,7.90
2017-11-09T12:20:08.994Z,7.90
2017-11-09T12:22:36.527Z,7.90
2017-11-09T12:25:04.045Z,8.00
2017-11-09T12:27:31.646Z,7.90
2017-11-09T12:29:59.198Z,7.90
2017-11-09T12:32:26.753Z,7.90
2017-11-09T12:34:55.021Z,8.00
2017-11-09T12:37:23.276Z,7.90
2017-11-09T12:39:51.183Z,7.90
2017-11-09T12:42:18.682Z,7.80
2017-11-09T12:44:46.197Z,7.80
2017-11-09T12:47:13.706Z,7.80
2017-11-09T12:49:42.002Z,7.90
2017-11-09T12:52:09.529Z,8.00
2017-11-09T12:54:37.021Z,8.00
2017-11-09T12:57:05.303Z,8.10
2017-11-09T12:59:33.574Z,8.10
2017-11-09T13:02:01.855Z,8.10
2017-11-09T13:04:30.142Z,8.10
2017-11-09T13:06:58.401Z,8.10
2017-11-09T13:09:26.695Z,8.10
2017-11-09T13:11:55.008Z,8.10
2017-11-09T13:14:22.527Z,8.10
2017-11-09T13:16:51.639Z,7.90
2017-11-09T13:19:23.107Z,7.90
2017-11-09T13:21:50.637Z,7.90
2017-11-09T13:24:18.983Z,7.90
2017-11-09T13:26:46.477Z,7.90
2017-11-09T13:29:14.777Z,8.00
2017-11-09T13:31:42.297Z,8.00
2017-11-09T13:34:10.577Z,7.90
2017-11-09T13:36:38.922Z,7.90
2017-11-09T13:39:06.409Z,7.90
2017-11-09T13:41:34.766Z,8.00
2017-11-09T13:44:02.266Z,7.90
2017-11-09T13:46:29.754Z,7.90
2017-11-09T13:48:57.270Z,7.90
2017-11-09T13:51:25.544Z,8.00
2017-11-09T13:53:53.838Z,7.90
2017-11-09T13:56:21.347Z,7.90
2017-11-09T13:58:48.862Z,7.80
2017-11-09T14:01:16.366Z,7.80
2017-11-09T14:03:43.874Z,7.80
2017-11-09T14:06:11.385Z,7.80
2017-11-09T14:08:38.881Z,7.80
2017-11-09T14:11:08.148Z,7.80
2017-11-09T14:13:35.642Z,7.80
2017-11-09T14:16:03.143Z,7.90
2017-11-09T14:18:30.677Z,7.80
2017-11-09T14:20:58.196Z,7.80
2017-11-09T14:23:26.474Z,7.80
2017-11-09T14:25:54.750Z,7.80
2017-11-09T14:28:23.025Z,7.80
2017-11-09T14:30:51.317Z,7.70
2017-11-09T14:33:18.819Z,7.70
2017-11-09T14:35:46.619Z,7.70
2017-11-09T14:38:15.679Z,7.70
2017-11-09T14:40:43.183Z,7.70
2017-11-09T14:43:10.784Z,7.70
2017-11-09T14:45:38.299Z,7.70
2017-11-09T14:48:06.633Z,7.70
2017-11-09T14:50:34.137Z,7.60
2017-11-09T14:53:02.416Z,7.70
2017-11-09T14:55:30.710Z,7.70
2017-11-09T14:57:58.208Z,7.60
2017-11-09T15:00:25.738Z,7.70
2017-11-09T15:02:53.272Z,7.70
2017-11-09T15:05:21.569Z,7.70
2017-11-09T15:07:49.117Z,7.60
2017-11-09T15:10:16.603Z,7.60
2017-11-09T15:12:44.125Z,7.70
2017-11-09T15:15:11.637Z,7.60
2017-11-09T15:17:39.150Z,7.60
2017-11-09T15:20:06.661Z,7.60
2017-11-09T15:22:34.161Z,7.50
2017-11-09T15:25:01.732Z,7.40
2017-11-09T15:27:29.260Z,7.40
2017-11-09T15:29:57.527Z,7.40
2017-11-09T15:32:31.651Z,7.40
2017-11-09T15:34:59.912Z,7.40
2017-11-09T15:37:27.728Z,7.40
2017-11-09T15:39:55.268Z,7.40
2017-11-09T15:42:22.798Z,7.40
2017-11-09T15:44:51.099Z,7.30
2017-11-09T15:47:18.602Z,7.30
2017-11-09T15:49:46.110Z,7.30
2017-11-09T15:52:14.377Z,7.30
2017-11-09T15:54:42.640Z,7.30
2017-11-09T15:57:10.932Z,7.20
2017-11-09T15:59:39.201Z,7.20
2017-11-09T16:02:07.472Z,7.20
2017-11-09T16:04:35.755Z,7.20
2017-11-09T16:07:07.192Z,7.20
2017-11-09T16:09:34.717Z,7.20
2017-11-09T16:12:02.223Z,7.20
2017-11-09T16:14:30.733Z,7.20
2017-11-09T16:16:58.243Z,7.10
2017-11-09T16:19:25.744Z,7.20
2017-11-09T16:21:53.373Z,7.20
2017-11-09T16:24:20.868Z,7.20
2017-11-09T16:26:48.380Z,7.20
2017-11-09T16:29:15.886Z,7.20
2017-11-09T16:31:43.552Z,7.20
2017-11-09T16:34:11.113Z,7.20
2017-11-09T16:36:38.675Z,7.20
2017-11-09T16:39:06.227Z,7.10
2017-11-09T16:41:33.730Z,7.10
2017-11-09T16:44:01.297Z,7.20
2017-11-09T16:46:29.635Z,7.10
2017-11-09T16:48:57.121Z,7.10
2017-11-09T16:51:24.672Z,7.10
2017-11-09T16:53:52.177Z,7.10
2017-11-09T16:56:21.232Z,7.10
2017-11-09T16:58:51.638Z,7.10
2017-11-09T17:01:19.163Z,7.10
2017-11-09T17:03:46.662Z,7.10
2017-11-09T17:06:14.183Z,7.10
2017-11-09T17:08:41.693Z,7.10
2017-11-09T17:11:10.109Z,7.10
2017-11-09T17:13:37.613Z,7.20
2017-11-09T17:16:05.101Z,7.10
2017-11-09T17:18:33.558Z,7.10
2017-11-09T17:21:01.100Z,7.00
2017-11-09T17:23:28.623Z,7.10
2017-11-09T17:25:56.130Z,7.00
2017-11-09T17:28:23.636Z,7.00
2017-11-09T17:30:51.918Z,7.00
2017-11-09T17:33:20.201Z,7.00
2017-11-09T17:35:47.856Z,7.00
2017-11-09T17:38:16.301Z,7.00
2017-11-09T17:40:43.876Z,7.00
2017-11-09T17:43:11.394Z,7.00
2017-11-09T17:45:38.884Z,7.00
2017-11-09T17:48:06.407Z,6.90
2017-11-09T17:50:33.954Z,7.00
2017-11-09T17:53:01.525Z,7.00
2017-11-09T17:55:29.090Z,6.90
2017-11-09T17:57:56.647Z,6.90
2017-11-09T18:00:24.201Z,6.90
2017-11-09T18:02:51.769Z,6.90
2017-11-09T18:05:19.289Z,7.00
2017-11-09T18:07:47.614Z,7.00
2017-11-09T18:10:15.934Z,7.00
2017-11-09T18:12:43.472Z,7.00
2017-11-09T18:15:10.983Z,7.00
2017-11-09T18:17:38.497Z,7.00
2017-11-09T18:20:06.054Z,7.00
2017-11-09T18:22:36.538Z,7.10
2017-11-09T18:25:04.037Z,7.10
2017-11-09T18:27:31.559Z,7.10
2017-11-09T18:29:59.070Z,7.10
2017-11-09T18:32:27.374Z,7.10
2017-11-09T18:34:54.905Z,7.10
2017-11-09T18:37:23.231Z,7.10
2017-11-09T18:39:50.875Z,7.10
2017-11-09T18:42:18.395Z,7.20
2017-11-09T18:44:46.664Z,7.10
2017-11-09T18:47:14.168Z,7.10
2017-11-09T18:49:41.761Z,7.10
2017-11-09T18:52:09.366Z,7.20
2017-11-09T18:54:37.670Z,7.10
2017-11-09T18:57:05.188Z,7.10
2017-11-09T18:59:33.473Z,7.20
2017-11-09T19:02:01.742Z,7.20
2017-11-09T19:04:30.009Z,7.30
2017-11-09T19:06:58.303Z,7.30
2017-11-09T19:09:26.578Z,7.30
2017-11-09T19:11:54.838Z,7.50
2017-11-09T19:14:22.345Z,7.40
2017-11-09T19:16:49.849Z,7.50
2017-11-09T19:19:17.363Z,7.50
2017-11-09T19:21:44.992Z,7.60
2017-11-09T19:24:13.245Z,7.70
2017-11-09T19:26:40.757Z,7.60
2017-11-09T19:29:08.257Z,7.60
2017-11-09T19:31:35.762Z,7.90
2017-11-09T19:34:03.266Z,7.70
2017-11-09T19:36:30.761Z,7.70
2017-11-09T19:38:59.037Z,7.60
2017-11-09T19:41:26.563Z,7.60
2017-11-09T19:43:54.075Z,7.60
2017-11-09T19:46:21.582Z,7.60
2017-11-09T19:48:49.187Z,7.60
2017-11-09T19:51:16.697Z,7.60
2017-11-09T19:53:44.226Z,7.60
2017-11-09T19:56:12.523Z,7.70
2017-11-09T19:58:40.025Z,7.60
2017-11-09T20:01:07.536Z,7.60
2017-11-09T20:03:35.142Z,7.60
2017-11-09T20:06:02.649Z,7.60
2017-11-09T20:08:30.169Z,7.50
2017-11-09T20:10:57.744Z,7.40
2017-11-09T20:13:25.261Z,7.40
2017-11-09T20:15:53.541Z,7.40
2017-11-09T20:18:21.819Z,7.40
2017-11-09T20:20:50.132Z,7.40
2017-11-09T20:23:17.676Z,7.40
2017-11-09T20:25:45.190Z,7.40
2017-11-09T20:28:12.732Z,7.30
2017-11-09T20:30:40.254Z,7.40
2017-11-09T20:33:07.796Z,7.30
2017-11-09T20:35:36.177Z,7.30
2017-11-09T20:38:04.433Z,7.30
2017-11-09T20:40:31.933Z,7.30
2017-11-09T20:42:59.448Z,7.20
2017-11-09T20:45:26.947Z,7.30
2017-11-09T20:47:54.477Z,7.10
2017-11-09T20:50:22.741Z,7.10
2017-11-09T20:52:51.077Z,7.10
2017-11-09T20:55:18.599Z,7.10
2017-11-09T20:57:46.862Z,7.10
2017-11-09T21:00:15.210Z,7.10
2017-11-09T21:02:42.697Z,7.10
2017-11-09T21:05:10.963Z,7.00
2017-11-09T21:07:38.477Z,7.00
2017-11-09T21:10:06.026Z,6.90
2017-11-09T21:12:33.559Z,6.90
2017-11-09T21:15:01.913Z,7.20
2017-11-09T21:17:29.423Z,7.20
2017-11-09T21:19:56.970Z,7.20
2017-11-09T21:22:24.461Z,7.10
2017-11-09T21:24:52.045Z,7.20
2017-11-09T21:27:19.571Z,7.10
2017-11-09T21:29:47.090Z,7.10
2017-11-09T21:32:15.400Z,7.30
2017-11-09T21:34:42.904Z,7.20
2017-11-09T21:37:10.456Z,7.30
2017-11-09T21:39:38.729Z,7.30
2017-11-09T21:42:06.266Z,7.30
2017-11-09T21:44:33.827Z,7.30
2017-11-09T21:47:01.332Z,7.30
2017-11-09T21:49:29.620Z,7.30
2017-11-09T21:51:57.885Z,7.30
2017-11-09T21:54:26.137Z,7.30
2017-11-09T21:56:54.458Z,7.20
2017-11-09T21:59:21.962Z,7.20
2017-11-09T22:01:49.474Z,7.10
2017-11-09T22:04:17.025Z,7.10
2017-11-09T22:06:44.523Z,7.10
2017-11-09T22:09:12.036Z,7.10
2017-11-09T22:11:40.309Z,7.00
2017-11-09T22:14:08.618Z,6.90
2017-11-09T22:16:36.108Z,6.90
2017-11-09T22:19:03.614Z,6.90
2017-11-09T22:21:31.122Z,6.80
2017-11-09T22:23:58.619Z,6.80
2017-11-09T22:26:27.022Z,6.70
2017-11-09T22:28:54.546Z,6.70
2017-11-09T22:31:22.062Z,6.70
2017-11-09T22:33:49.600Z,6.70
2017-11-09T22:36:17.098Z,6.70
2017-11-09T22:38:44.648Z,6.80
2017-11-09T22:41:12.209Z,6.80
2017-11-09T22:43:39.720Z,6.80
2017-11-09T22:46:07.222Z,6.80
2017-11-09T22:48:35.263Z,6.90
2017-11-09T22:51:02.922Z,6.90
2017-11-09T22:53:30.457Z,7.00
2017-11-09T22:55:58.714Z,7.00
2017-11-09T22:58:27.004Z,7.00
2017-11-09T23:00:55.269Z,7.00
2017-11-09T23:03:22.777Z,7.00
2017-11-09T23:05:50.288Z,7.00
2017-11-09T23:08:18.607Z,7.00
2017-11-09T23:10:46.365Z,7.00
2017-11-09T23:13:14.739Z,7.00
2017-11-09T23:15:42.316Z,7.10
2017-11-09T23:18:09.884Z,7.00
2017-11-09T23:20:37.370Z,7.10
2017-11-09T23:23:04.878Z,7.10
2017-11-09T23:25:32.394Z,7.10
2017-11-09T23:28:02.880Z,7.10
2017-11-09T23:30:30.630Z,7.10
2017-11-09T23:32:58.209Z,7.10
2017-11-09T23:35:25.773Z,7.10
2017-11-09T23:37:53.611Z,7.10
2017-11-09T23:40:21.203Z,7.10
2017-11-09T23:42:48.777Z,7.10
2017-11-09T23:45:16.282Z,7.20
2017-11-09T23:47:43.804Z,7.20
2017-11-09T23:50:11.499Z,7.20
2017-11-09T23:52:39.105Z,7.10
2017-11-09T23:55:06.646Z,7.20
2017-11-09T23:57:34.273Z,7.20
